Time;durP1;ratioP1;P1;durP2;ratioP2;P2;SDS_P1;SDS_P2;PMS_P1;PMS_P2;Temp;Humidity;BMP_temperature;BMP_pressure;BME280_temperature;BME280_humidity;BME280_pressure;Samples;Min_cycle;Max_cycle;Signal;HPM_P1;HPM_P2
2022/03/07 00:01:25;;;;;;;30.15;16.33;;;;;;;1.32;100.00;97366.47;4997545;28;20526;-86
2022/03/07 00:03:55;;;;;;;33.83;16.45;;;;;;;1.25;100.00;97369.31;4983383;28;20089;-86
2022/03/07 00:06:21;;;;;;;34.25;17.20;;;;;;;1.34;100.00;97375.19;5000736;28;20065;-86
2022/03/07 00:08:46;;;;;;;26.42;14.27;;;;;;;1.31;100.00;97364.72;4990937;28;20121;-86
2022/03/07 00:11:12;;;;;;;27.40;14.40;;;;;;;1.23;100.00;97350.06;4994588;28;20178;-86
2022/03/07 00:13:37;;;;;;;27.42;14.60;;;;;;;1.27;100.00;97363.09;4989284;28;20030;-86
2022/03/07 00:16:03;;;;;;;25.70;14.20;;;;;;;1.25;100.00;97353.50;4991493;28;20030;-86
2022/03/07 00:18:30;;;;;;;25.10;13.88;;;;;;;1.36;100.00;97362.81;5008141;28;20029;-86
2022/03/07 00:20:55;;;;;;;25.33;13.48;;;;;;;1.35;100.00;97350.56;5007847;28;20021;-86
2022/03/07 00:23:21;;;;;;;31.90;16.70;;;;;;;1.42;100.00;97365.28;4985048;28;20121;-87
2022/03/07 00:25:46;;;;;;;27.73;14.15;;;;;;;1.34;100.00;97359.38;5012298;28;20045;-86
2022/03/07 00:28:14;;;;;;;28.05;15.10;;;;;;;1.37;100.00;97367.19;4987800;28;20026;-86
2022/03/07 00:30:40;;;;;;;32.55;16.30;;;;;;;1.27;100.00;97359.59;4996123;28;20029;-86
2022/03/07 00:33:05;;;;;;;30.33;14.93;;;;;;;1.20;100.00;97361.53;4990957;28;20508;-87
2022/03/07 00:35:31;;;;;;;25.70;14.48;;;;;;;1.09;100.00;97342.53;4999520;28;20026;-86
2022/03/07 00:37:57;;;;;;;31.73;16.02;;;;;;;1.24;100.00;97365.81;4996666;28;20033;-87
2022/03/07 00:40:22;;;;;;;26.48;14.18;;;;;;;1.18;100.00;97375.66;4986359;28;20034;-87
2022/03/07 00:42:48;;;;;;;29.33;14.63;;;;;;;1.21;100.00;97373.78;4982010;28;20026;-87
2022/03/07 00:45:14;;;;;;;29.77;15.05;;;;;;;1.20;100.00;97366.78;4985387;28;20029;-87
2022/03/07 00:47:39;;;;;;;22.85;12.60;;;;;;;1.17;100.00;97356.34;4999320;28;20026;-87
2022/03/07 00:50:06;;;;;;;19.50;11.60;;;;;;;1.12;100.00;97366.16;4995610;28;20080;-87
2022/03/07 00:52:31;;;;;;;22.38;12.00;;;;;;;1.12;100.00;97363.50;4999762;28;20029;-87
2022/03/07 00:54:57;;;;;;;21.90;12.15;;;;;;;1.16;100.00;97359.91;4998478;28;20026;-88
2022/03/07 00:57:23;;;;;;;23.40;12.52;;;;;;;1.17;100.00;97356.34;4987302;28;20067;-87
2022/03/07 00:59:48;;;;;;;27.38;12.65;;;;;;;1.18;100.00;97355.44;4979844;28;20093;-86
2022/03/07 01:02:14;;;;;;;24.73;12.27;;;;;;;1.18;100.00;97357.22;4991090;28;20030;-87
2022/03/07 01:04:40;;;;;;;23.63;12.02;;;;;;;1.17;100.00;97355.50;4990018;28;20513;-86
2022/03/07 01:07:08;;;;;;;29.80;12.60;;;;;;;1.13;100.00;97351.22;4997442;28;20018;-87
2022/03/07 01:09:33;;;;;;;23.55;12.25;;;;;;;1.22;100.00;97349.19;4998447;28;20029;-87
2022/03/07 01:11:59;;;;;;;25.65;12.18;;;;;;;1.13;100.00;97346.81;4999826;28;20124;-86
2022/03/07 01:14:24;;;;;;;24.95;12.63;;;;;;;1.15;100.00;97337.09;4987438;28;20072;-87
2022/03/07 01:16:50;;;;;;;24.52;12.45;;;;;;;1.20;100.00;97343.09;4993729;28;20036;-87
2022/03/07 01:19:16;;;;;;;23.85;12.80;;;;;;;1.21;100.00;97336.06;4989584;28;20120;-87
2022/03/07 01:21:41;;;;;;;27.67;14.05;;;;;;;1.27;100.00;97333.25;5006746;28;20034;-87
2022/03/07 01:24:07;;;;;;;21.00;11.93;;;;;;;1.30;100.00;97331.38;5007260;28;20053;-86
2022/03/07 01:26:33;;;;;;;22.45;12.13;;;;;;;1.25;100.00;97332.44;4990622;28;20026;-87
2022/03/07 01:28:59;;;;;;;24.77;12.23;;;;;;;1.23;100.00;97324.56;4983441;28;20034;-87
2022/03/07 01:31:25;;;;;;;24.17;12.48;;;;;;;1.28;100.00;97333.22;4988025;28;20391;-87
2022/03/07 01:33:50;;;;;;;24.20;12.15;;;;;;;1.26;100.00;97335.00;5014220;28;20033;-86
2022/03/07 01:36:16;;;;;;;28.35;14.57;;;;;;;1.28;100.00;97342.88;4981771;28;20040;-87
2022/03/07 01:38:42;;;;;;;30.10;15.93;;;;;;;1.26;100.00;97332.38;4996518;28;20045;-87
2022/03/07 01:41:08;;;;;;;29.88;14.65;;;;;;;1.32;100.00;97342.75;5017363;28;20065;-87
2022/03/07 01:43:33;;;;;;;27.65;14.13;;;;;;;1.29;100.00;97334.09;5009544;28;20455;-86
2022/03/07 01:45:59;;;;;;;29.63;14.45;;;;;;;1.23;100.00;97340.38;5017229;28;20450;-87
2022/03/07 01:48:25;;;;;;;33.88;17.25;;;;;;;1.18;100.00;97322.97;4996560;28;20033;-87
2022/03/07 01:50:50;;;;;;;43.53;19.05;;;;;;;1.25;100.00;97330.66;4978853;28;20406;-87
2022/03/07 01:53:17;;;;;;;31.23;14.90;;;;;;;1.31;100.00;97345.44;4990453;28;20068;-87
2022/03/07 01:55:42;;;;;;;27.10;13.18;;;;;;;1.25;100.00;97328.03;4988984;28;20037;-90
2022/03/07 01:58:08;;;;;;;21.35;11.85;;;;;;;1.19;100.00;97320.31;4982414;28;20042;-87
2022/03/07 02:00:34;;;;;;;25.35;12.57;;;;;;;1.33;100.00;97340.97;4989064;28;20025;-87
2022/03/07 02:03:01;;;;;;;26.75;13.90;;;;;;;1.29;100.00;97337.59;4998740;28;20025;-86
2022/03/07 02:05:27;;;;;;;24.00;13.30;;;;;;;1.19;100.00;97330.84;5018224;28;20029;-87
2022/03/07 02:07:55;;;;;;;32.38;14.70;;;;;;;1.25;100.00;97350.88;5017335;28;20082;-87
2022/03/07 02:10:21;;;;;;;28.98;13.85;;;;;;;1.14;100.00;97329.25;4985740;28;20030;-87
2022/03/07 02:12:46;;;;;;;28.15;14.60;;;;;;;1.19;100.00;97333.47;5008958;28;20421;-87
2022/03/07 02:15:12;;;;;;;31.83;15.13;;;;;;;1.20;100.00;97329.91;4982572;28;20034;-87
2022/03/07 02:17:38;;;;;;;32.20;15.77;;;;;;;1.25;100.00;97343.84;4997676;28;20506;-87
2022/03/07 02:20:05;;;;;;;26.75;13.73;;;;;;;1.16;100.00;97327.44;4990362;28;20342;-87
2022/03/07 02:22:30;;;;;;;30.63;15.25;;;;;;;1.24;100.00;97346.50;5005101;28;20036;-87
2022/03/07 02:24:56;;;;;;;28.95;15.07;;;;;;;1.17;100.00;97337.91;4997891;28;20498;-87
2022/03/07 02:27:21;;;;;;;29.83;15.05;;;;;;;1.26;100.00;97348.19;5000622;28;20405;-87
2022/03/07 02:29:48;;;;;;;33.53;16.27;;;;;;;1.27;100.00;97355.19;4986014;28;20049;-87
2022/03/07 02:32:14;;;;;;;35.15;18.30;;;;;;;1.09;100.00;97335.50;4980464;28;20042;-87
2022/03/07 02:34:39;;;;;;;36.05;18.15;;;;;;;1.16;100.00;97346.72;4994832;28;20102;-87
2022/03/07 02:37:05;;;;;;;32.95;17.67;;;;;;;1.26;100.00;97356.06;4992039;28;20153;-87
2022/03/07 02:39:30;;;;;;;34.17;16.83;;;;;;;1.17;100.00;97335.28;5000634;28;20171;-87
2022/03/07 02:41:56;;;;;;;34.25;16.85;;;;;;;1.11;100.00;97343.34;4985799;28;20548;-87
2022/03/07 02:44:23;;;;;;;35.28;17.67;;;;;;;1.15;100.00;97347.63;4989222;28;20095;-87
2022/03/07 02:46:49;;;;;;;32.00;16.63;;;;;;;1.26;100.00;97356.06;4988776;28;20123;-88
2022/03/07 02:49:14;;;;;;;28.70;15.52;;;;;;;1.16;100.00;97344.09;4989168;28;20030;-87
2022/03/07 02:51:40;;;;;;;30.77;14.23;;;;;;;1.29;100.00;97361.28;5003826;28;20040;-87
2022/03/07 02:54:06;;;;;;;28.42;14.65;;;;;;;1.26;100.00;97345.53;4980408;28;20474;-87
2022/03/07 02:56:31;;;;;;;31.33;15.85;;;;;;;1.28;100.00;97348.16;5004943;28;20029;-87
2022/03/07 02:58:57;;;;;;;28.38;14.55;;;;;;;1.27;100.00;97346.41;4981481;28;20046;-87
2022/03/07 03:01:23;;;;;;;35.08;15.48;;;;;;;1.12;100.00;97341.59;5003465;28;20025;-84
2022/03/07 03:03:48;;;;;;;35.58;17.23;;;;;;;1.12;100.00;97358.25;4993148;28;20029;-84
2022/03/07 03:06:14;;;;;;;36.45;17.05;;;;;;;1.06;100.00;97340.84;5003433;28;20044;-84
2022/03/07 03:08:40;;;;;;;33.38;16.73;;;;;;;0.99;100.00;97330.53;4983624;28;20052;-85
2022/03/07 03:11:05;;;;;;;29.98;15.75;;;;;;;1.13;100.00;97348.59;4991749;28;20093;-87
2022/03/07 03:13:31;;;;;;;32.10;16.85;;;;;;;1.09;100.00;97346.03;4991274;28;20025;-85
2022/03/07 03:15:57;;;;;;;30.13;14.82;;;;;;;1.23;100.00;97355.31;4999600;28;20092;-86
2022/03/07 03:18:23;;;;;;;26.40;14.32;;;;;;;1.20;100.00;97344.88;4998108;28;20032;-86
2022/03/07 03:20:50;;;;;;;33.92;17.13;;;;;;;1.17;100.00;97334.44;4987491;28;20072;-88
2022/03/07 03:23:17;;;;;;;32.53;16.90;;;;;;;1.29;100.00;97353.38;4989531;28;20052;-88
2022/03/07 03:25:43;;;;;;;36.42;17.50;;;;;;;1.24;100.00;97350.00;4997010;28;20026;-88
2022/03/07 03:28:08;;;;;;;38.30;16.92;;;;;;;1.18;100.00;97346.66;4988302;28;20025;-86
2022/03/07 03:30:34;;;;;;;32.88;16.67;;;;;;;1.20;100.00;97352.78;4996407;28;20524;-87
2022/03/07 03:33:00;;;;;;;31.77;15.70;;;;;;;1.25;100.00;97346.47;4979954;28;20497;-86
2022/03/07 03:35:26;;;;;;;27.92;13.60;;;;;;;1.23;100.00;97350.91;4988234;28;20025;-86
2022/03/07 03:37:52;;;;;;;27.30;13.38;;;;;;;1.26;100.00;97358.72;4993430;28;20508;-86
2022/03/07 03:40:18;;;;;;;27.33;13.85;;;;;;;1.30;100.00;97357.72;5004348;28;20026;-86
2022/03/07 03:42:43;;;;;;;26.90;13.43;;;;;;;1.27;100.00;97355.19;4988520;28;20034;-87
2022/03/07 03:45:10;;;;;;;24.85;12.95;;;;;;;1.29;100.00;97366.56;4988560;28;20513;-87
2022/03/07 03:47:37;;;;;;;23.70;11.93;;;;;;;1.22;100.00;97354.47;4996154;28;20083;-87
2022/03/07 03:50:04;;;;;;;20.67;11.85;;;;;;;1.23;100.00;97361.44;4996108;28;20033;-87
2022/03/07 03:52:30;;;;;;;20.08;10.60;;;;;;;1.03;100.00;97359.38;4989282;28;20030;-87
2022/03/07 03:54:56;;;;;;;17.20;9.43;;;;;;;0.97;100.00;97354.28;5007325;28;20029;-88
2022/03/07 03:57:22;;;;;;;20.55;10.10;;;;;;;0.94;100.00;97348.22;4999048;28;20609;-88
2022/03/07 03:59:48;;;;;;;20.58;10.88;;;;;;;1.02;100.00;97362.03;5008226;28;20060;-87
2022/03/07 04:02:13;;;;;;;27.85;15.07;;;;;;;0.94;100.00;97353.50;4995500;28;20087;-87
2022/03/07 04:04:39;;;;;;;26.58;14.50;;;;;;;1.04;100.00;97354.97;4995850;28;20573;-86
2022/03/07 04:07:05;;;;;;;27.75;13.32;;;;;;;1.08;100.00;97353.97;4997065;28;20025;-86
2022/03/07 04:09:31;;;;;;;25.52;12.57;;;;;;;1.08;100.00;97340.81;5002145;28;20108;-85
2022/03/07 04:11:56;;;;;;;28.45;12.98;;;;;;;1.00;100.00;97338.41;4996939;28;20044;-87
2022/03/07 04:14:22;;;;;;;22.65;11.93;;;;;;;1.16;100.00;97359.91;4994493;28;20422;-85
2022/03/07 04:16:48;;;;;;;21.70;11.77;;;;;;;1.13;100.00;97357.34;4981314;28;20096;-85
2022/03/07 04:19:15;;;;;;;21.85;11.48;;;;;;;1.20;100.00;97365.94;4986781;28;20030;-87
2022/03/07 04:21:41;;;;;;;21.65;10.73;;;;;;;1.14;100.00;97364.31;5014931;28;20040;-87
2022/03/07 04:24:08;;;;;;;24.17;11.52;;;;;;;1.14;100.00;97358.22;4987797;28;20103;-86
2022/03/07 04:26:34;;;;;;;23.80;11.35;;;;;;;1.12;100.00;97352.13;4986218;28;20029;-87
2022/03/07 04:29:05;;;;;;;20.73;11.75;;;;;;;1.09;100.00;97353.94;5012864;28;20048;-88
2022/03/07 04:31:32;;;;;;;21.50;11.60;;;;;;;1.18;100.00;97363.34;4988860;28;20038;-86
2022/03/07 04:33:58;;;;;;;23.85;11.85;;;;;;;1.22;100.00;97365.00;4989777;28;20099;-87
2022/03/07 04:36:24;;;;;;;28.42;13.43;;;;;;;1.20;100.00;97356.25;5002024;28;20048;-87
2022/03/07 04:38:49;;;;;;;22.63;11.43;;;;;;;1.20;100.00;97363.31;5002346;28;20026;-77
2022/03/07 04:41:15;;;;;;;23.60;11.18;;;;;;;1.15;100.00;97358.16;4967105;28;20025;-85
2022/03/07 04:43:40;;;;;;;19.90;10.90;;;;;;;1.19;100.00;97364.22;4989745;28;20033;-88
2022/03/07 04:46:09;;;;;;;19.45;10.15;;;;;;;1.18;100.00;97362.47;5017679;28;20017;-87
2022/03/07 04:48:36;;;;;;;22.13;12.15;;;;;;;1.22;100.00;97364.13;4986383;28;20029;-84
2022/03/07 04:51:02;;;;;;;21.67;11.90;;;;;;;1.15;100.00;97363.44;4991104;28;20608;-85
2022/03/07 04:53:27;;;;;;;22.42;10.73;;;;;;;1.13;100.00;97362.63;4988669;28;20037;-85
2022/03/07 04:55:53;;;;;;;22.88;11.23;;;;;;;1.12;100.00;97358.25;5007717;28;20072;-85
2022/03/07 04:58:20;;;;;;;21.15;11.82;;;;;;;1.11;100.00;97359.16;4985373;28;20056;-85
2022/03/07 05:00:45;;;;;;;20.55;10.77;;;;;;;1.15;100.00;97363.44;4992946;28;20033;-85
2022/03/07 05:03:11;;;;;;;23.27;11.40;;;;;;;1.13;100.00;97362.63;4979974;28;20068;-84
2022/03/07 05:05:37;;;;;;;25.48;13.05;;;;;;;1.16;100.00;97361.66;4990802;28;20026;-84
2022/03/07 05:08:03;;;;;;;25.38;13.70;;;;;;;1.20;100.00;97361.53;5015175;28;20029;-85
2022/03/07 05:10:28;;;;;;;25.48;13.32;;;;;;;1.17;100.00;97366.88;5013631;28;20030;-83
2022/03/07 05:12:55;;;;;;;24.73;13.10;;;;;;;1.00;100.00;97337.53;4990314;28;20041;-83
2022/03/07 05:15:21;;;;;;;22.17;12.55;;;;;;;1.27;100.00;97372.75;4986146;28;20032;-82
2022/03/07 05:17:51;;;;;;;50.15;27.65;;;;;;;1.11;100.00;97359.16;4997711;28;20508;-85
2022/03/07 05:20:17;;;;;;;39.72;21.45;;;;;;;1.15;100.00;97368.69;4991737;28;20763;-84
2022/03/07 05:22:44;;;;;;;27.85;11.50;;;;;;;1.22;100.00;97375.53;5008076;28;20504;-84
2022/03/07 05:25:12;;;;;;;22.25;11.45;;;;;;;1.17;100.00;97380.03;4992283;28;20152;-83
2022/03/07 05:27:38;;;;;;;22.10;11.95;;;;;;;1.20;100.00;97371.22;4997426;28;20025;-87
2022/03/07 05:30:05;;;;;;;23.77;12.77;;;;;;;1.26;100.00;97371.88;4992115;28;20068;-84
2022/03/07 05:32:31;;;;;;;34.42;16.85;;;;;;;1.28;100.00;97367.47;5017389;28;20042;-85
2022/03/07 05:34:58;;;;;;;32.00;16.00;;;;;;;1.26;100.00;97358.72;4986745;28;20033;-81
2022/03/07 05:37:23;;;;;;;33.78;16.60;;;;;;;1.35;100.00;97360.25;4991992;28;20037;-85
2022/03/07 05:39:49;;;;;;;39.70;20.33;;;;;;;1.43;100.00;97363.50;4991207;28;20052;-84
2022/03/07 05:42:15;;;;;;;36.03;18.50;;;;;;;1.41;100.00;97363.56;4981871;28;20036;-85
2022/03/07 05:44:40;;;;;;;29.60;13.95;;;;;;;1.37;100.00;97375.09;4986129;28;20120;-85
2022/03/07 05:47:06;;;;;;;27.40;14.07;;;;;;;1.23;100.00;97365.88;4998699;28;20037;-85
2022/03/07 05:49:32;;;;;;;26.40;13.05;;;;;;;1.29;100.00;97363.94;4994224;28;20116;-84
2022/03/07 05:51:57;;;;;;;26.20;12.32;;;;;;;1.36;100.00;97362.81;4986860;28;20034;-85
2022/03/07 05:54:23;;;;;;;26.60;14.00;;;;;;;1.45;100.00;97352.00;5001715;28;20034;-83
2022/03/07 05:56:49;;;;;;;25.35;13.27;;;;;;;1.46;100.00;97351.13;4992440;28;20033;-85
2022/03/07 05:59:14;;;;;;;26.67;14.27;;;;;;;1.55;100.00;97371.94;4996645;28;20083;-84
2022/03/07 06:01:40;;;;;;;28.30;15.02;;;;;;;1.48;100.00;97357.19;4993589;28;20041;-82
2022/03/07 06:04:06;;;;;;;55.97;25.10;;;;;;;1.56;100.00;97360.50;4998132;28;20051;-84
2022/03/07 06:06:31;;;;;;;73.53;27.52;;;;;;;1.52;100.00;97342.16;5016113;28;20025;-84
2022/03/07 06:08:57;;;;;;;61.40;27.20;;;;;;;1.64;100.00;97363.75;4999044;28;20021;-84
2022/03/07 06:11:22;;;;;;;45.88;21.30;;;;;;;1.75;100.00;97367.84;4988741;28;20030;-83
2022/03/07 06:13:48;;;;;;;51.17;22.20;;;;;;;1.89;100.00;97374.41;4993023;28;20103;-84
2022/03/07 06:16:14;;;;;;;47.20;23.77;;;;;;;1.78;100.00;97349.28;4986745;28;20026;-84
2022/03/07 06:18:39;;;;;;;86.20;41.75;;;;;;;1.75;100.00;97352.91;4993079;28;20037;-85
2022/03/07 06:21:05;;;;;;;37.53;18.10;;;;;;;1.74;100.00;97360.84;5000072;28;20485;-86
2022/03/07 06:23:31;;;;;;;38.33;18.17;;;;;;;1.80;100.00;97371.19;4997283;28;20163;-85
2022/03/07 06:25:57;;;;;;;30.38;16.17;;;;;;;1.89;100.00;97384.09;4995558;28;20053;-84
2022/03/07 06:28:23;;;;;;;30.95;16.38;;;;;;;1.88;100.00;97356.00;4987691;28;20442;-83
2022/03/07 06:30:49;;;;;;;37.92;18.08;;;;;;;2.01;100.00;97371.41;4981531;28;20076;-85
2022/03/07 06:33:15;;;;;;;51.42;20.90;;;;;;;2.35;100.00;97383.50;5004484;28;20109;-85
2022/03/07 06:35:41;;;;;;;42.50;21.35;;;;;;;2.55;100.00;97381.09;4996611;28;20032;-85
2022/03/07 06:38:07;;;;;;;46.47;23.65;;;;;;;2.90;100.00;97382.53;4994894;28;20022;-85
2022/03/07 06:40:33;;;;;;;46.88;22.40;;;;;;;3.00;100.00;97376.03;4986574;28;20025;-85
2022/03/07 06:43:00;;;;;;;44.80;22.48;;;;;;;3.29;100.00;97392.56;4985826;28;20026;-84
2022/03/07 06:45:27;;;;;;;38.67;21.30;;;;;;;3.33;100.00;97381.88;4983176;28;20034;-84
2022/03/07 06:47:53;;;;;;;34.97;19.17;;;;;;;3.13;100.00;97369.41;5002597;28;20032;-84
2022/03/07 06:50:19;;;;;;;35.60;18.25;;;;;;;3.19;100.00;97385.03;4989078;28;20109;-84
2022/03/07 06:52:44;;;;;;;37.05;20.13;;;;;;;3.26;100.00;97383.91;4992860;28;20402;-84
2022/03/07 06:55:11;;;;;;;41.47;21.05;;;;;;;3.19;100.00;97379.75;5006244;28;20472;-85
2022/03/07 06:57:37;;;;;;;40.03;21.48;;;;;;;3.55;100.00;97386.34;5007077;28;20062;-85
2022/03/07 07:00:06;;;;;;;43.55;23.95;;;;;;;3.63;100.00;97391.38;4991668;28;20494;-83
2022/03/07 07:02:32;;;;;;;45.95;19.67;;;;;;;3.66;99.95;97378.88;5005485;28;20087;-84
2022/03/07 07:04:58;;;;;;;46.08;21.27;;;;;;;3.87;99.69;97379.88;4987439;28;20545;-86
2022/03/07 07:07:24;;;;;;;36.03;19.90;;;;;;;4.24;97.70;97368.72;4983104;28;20170;-83
2022/03/07 07:09:50;;;;;;;32.15;18.17;;;;;;;4.55;92.24;97374.50;4988339;28;20140;-83
2022/03/07 07:12:15;;;;;;;31.88;17.27;;;;;;;4.63;89.66;97372.38;4985390;28;20066;-83
2022/03/07 07:14:41;;;;;;;26.67;15.13;;;;;;;4.57;88.12;97380.56;4977559;28;20058;-85
2022/03/07 07:17:07;;;;;;;24.40;14.65;;;;;;;4.84;89.30;97383.84;4975850;28;20030;-84
2022/03/07 07:19:32;;;;;;;27.02;13.43;;;;;;;4.97;87.42;97381.56;4984626;28;20034;-83
2022/03/07 07:21:58;;;;;;;30.92;17.58;;;;;;;5.19;85.84;97383.22;4989188;28;20032;-83
2022/03/07 07:24:23;;;;;;;34.90;17.48;;;;;;;5.40;85.50;97386.72;4985628;28;20502;-85
2022/03/07 07:26:49;;;;;;;25.58;14.75;;;;;;;5.03;85.05;97378.66;4982241;28;20474;-83
2022/03/07 07:29:15;;;;;;;27.98;15.95;;;;;;;4.64;86.08;97379.41;4993291;28;20061;-83
2022/03/07 07:31:40;;;;;;;31.77;17.55;;;;;;;4.60;86.95;97391.03;4988978;28;20505;-83
2022/03/07 07:34:06;;;;;;;33.40;17.52;;;;;;;4.60;88.68;97384.88;4988875;28;20026;-82
2022/03/07 07:36:31;;;;;;;34.88;18.92;;;;;;;4.79;88.13;97384.06;4979363;28;20018;-84
2022/03/07 07:38:57;;;;;;;62.80;17.63;;;;;;;4.10;89.92;97382.47;4989842;28;20033;-84
2022/03/07 07:41:23;;;;;;;27.83;15.25;;;;;;;4.11;91.96;97393.91;4992039;28;20030;-84
2022/03/07 07:43:51;;;;;;;27.35;15.60;;;;;;;4.50;90.45;97389.69;5002910;28;20041;-83
2022/03/07 07:46:18;;;;;;;27.85;16.38;;;;;;;4.59;90.89;97389.31;4992745;28;20041;-85
2022/03/07 07:48:44;;;;;;;29.77;15.70;;;;;;;4.40;88.34;97383.03;4994002;28;20030;-83
2022/03/07 07:51:09;;;;;;;32.13;17.52;;;;;;;4.50;91.02;97391.47;4977446;28;20088;-84
2022/03/07 07:53:35;;;;;;;20.25;11.82;;;;;;;4.07;91.65;97366.72;4983320;28;20074;-84
2022/03/07 07:56:02;;;;;;;20.48;11.02;;;;;;;4.52;87.47;97381.69;5004315;28;20482;-85
2022/03/07 07:58:27;;;;;;;20.45;9.00;;;;;;;4.01;87.89;97395.19;4992609;28;20124;-82
2022/03/07 08:00:53;;;;;;;19.17;10.82;;;;;;;3.81;91.84;97388.88;4985767;28;20153;-84
2022/03/07 08:03:19;;;;;;;19.38;11.00;;;;;;;3.99;93.41;97389.97;4983246;28;20058;-84
2022/03/07 08:05:48;;;;;;;23.33;13.07;;;;;;;4.01;93.37;97384.59;4991298;28;20033;-84
2022/03/07 08:08:18;;;;;;;23.30;14.18;;;;;;;4.52;92.94;97398.44;4982319;28;20034;-94
2022/03/07 08:10:44;;;;;;;23.63;13.45;;;;;;;4.77;90.97;97396.50;4979272;28;20100;-85
2022/03/07 08:13:10;;;;;;;26.45;13.75;;;;;;;4.86;90.88;97379.38;4988095;28;20046;-83
2022/03/07 08:15:36;;;;;;;19.90;12.05;;;;;;;4.97;88.23;97386.84;4983429;28;20037;-84
2022/03/07 08:18:01;;;;;;;19.77;11.98;;;;;;;4.91;83.21;97372.94;4982674;28;20045;-85
2022/03/07 08:20:27;;;;;;;16.92;9.77;;;;;;;5.01;84.46;97393.75;4990203;28;20045;-84
2022/03/07 08:22:53;;;;;;;17.92;10.32;;;;;;;4.85;82.65;97377.66;5004433;28;20029;-85
2022/03/07 08:25:20;;;;;;;18.63;10.48;;;;;;;4.68;84.01;97396.88;4984832;28;20030;-84
2022/03/07 08:27:46;;;;;;;19.17;10.40;;;;;;;4.38;82.86;97383.09;4986790;28;20518;-85
2022/03/07 08:30:13;;;;;;;15.30;8.57;;;;;;;4.34;84.11;97391.22;4994853;28;20065;-85
2022/03/07 08:32:40;;;;;;;21.33;11.65;;;;;;;4.52;85.15;97403.75;4994854;28;20486;-85
2022/03/07 08:35:07;;;;;;;40.85;20.55;;;;;;;4.33;83.61;97403.63;4991174;28;20194;-84
2022/03/07 08:37:32;;;;;;;25.75;13.43;;;;;;;4.33;85.19;97400.09;5001180;28;20038;-84
2022/03/07 08:39:59;;;;;;;22.10;13.15;;;;;;;4.81;86.37;97405.19;4986966;28;20045;-83
2022/03/07 08:42:24;;;;;;;18.80;10.73;;;;;;;4.83;86.20;97396.25;4986584;28;20042;-84
2022/03/07 08:44:52;;;;;;;22.05;11.93;;;;;;;4.87;85.66;97397.84;4986431;28;20093;-85
2022/03/07 08:47:18;;;;;;;20.48;11.73;;;;;;;4.65;84.41;97404.09;4988666;28;20129;-87
2022/03/07 08:49:43;;;;;;;17.33;9.63;;;;;;;4.95;84.81;97394.03;4988360;28;20505;-85
2022/03/07 08:52:15;;;;;;;15.48;9.25;;;;;;;4.83;82.41;97383.00;4996970;28;20041;-85
2022/03/07 08:54:50;;;;;;;18.67;10.10;;;;;;;5.14;81.22;97392.28;4988852;28;20034;-83
2022/03/07 08:57:40;;;;;;;26.17;15.52;;;;;;;5.49;79.54;97373.06;5004305;28;20483;-85
2022/03/07 09:00:09;;;;;;;20.52;12.20;;;;;;;5.78;79.01;97404.44;4984384;28;20042;-85
2022/03/07 09:02:34;;;;;;;24.70;14.45;;;;;;;5.71;79.95;97396.84;4986827;28;20120;-85
2022/03/07 09:05:00;;;;;;;23.63;14.02;;;;;;;5.85;80.03;97391.75;4978565;28;20491;-85
2022/03/07 09:07:28;;;;;;;21.25;11.82;;;;;;;5.86;79.77;97394.38;4993344;28;20026;-85
2022/03/07 09:09:58;;;;;;;25.95;14.80;;;;;;;5.78;77.78;97366.44;4985521;28;20026;-86
2022/03/07 09:12:27;;;;;;;24.67;14.00;;;;;;;5.33;78.31;97391.44;4964640;28;20038;-85
2022/03/07 09:15:05;;;;;;;26.92;15.88;;;;;;;5.85;78.96;97397.97;4968087;28;20045;-84
2022/03/07 09:17:31;;;;;;;30.58;15.70;;;;;;;6.15;78.79;97392.19;4970925;28;20041;-86
2022/03/07 09:19:57;;;;;;;19.48;11.18;;;;;;;5.89;76.99;97374.78;4968753;28;20406;-84
2022/03/07 09:22:24;;;;;;;22.63;12.90;;;;;;;6.20;75.29;97395.47;4989335;28;20030;-85
2022/03/07 09:24:50;;;;;;;28.00;15.63;;;;;;;6.27;75.82;97402.22;4991952;28;20416;-85
2022/03/07 09:27:15;;;;;;;23.52;14.07;;;;;;;5.67;76.95;97380.19;4974290;28;20029;-85
2022/03/07 09:29:41;;;;;;;20.55;12.10;;;;;;;5.63;79.64;97398.97;4967489;28;20026;-85
2022/03/07 09:32:07;;;;;;;20.63;11.95;;;;;;;5.91;78.84;97397.69;4970251;28;20054;-85
2022/03/07 09:34:36;;;;;;;19.05;10.20;;;;;;;5.53;79.32;97408.28;4973164;28;20030;-85
2022/03/07 09:37:04;;;;;;;22.73;13.02;;;;;;;6.41;78.30;97394.44;4991832;28;20529;-85
2022/03/07 09:39:31;;;;;;;16.10;8.73;;;;;;;6.75;75.13;97380.38;4968107;28;20116;-85
2022/03/07 09:41:58;;;;;;;27.27;15.60;;;;;;;7.19;71.64;97379.03;4967522;28;20030;-86
2022/03/07 09:44:23;;;;;;;14.07;8.48;;;;;;;7.62;71.71;97382.97;4968826;28;20053;-85
2022/03/07 09:46:50;;;;;;;16.88;8.73;;;;;;;7.87;70.57;97383.38;4964249;28;20022;-85
2022/03/07 09:49:17;;;;;;;24.92;13.63;;;;;;;8.11;68.95;97376.72;4970064;28;20125;-86
2022/03/07 09:51:43;;;;;;;14.52;8.73;;;;;;;8.26;65.19;97372.34;4975913;28;20155;-86
2022/03/07 09:54:09;;;;;;;20.85;12.10;;;;;;;7.89;69.83;97393.94;4967568;28;20093;-86
2022/03/07 09:56:35;;;;;;;17.55;9.55;;;;;;;7.79;67.33;97374.06;4970648;28;20034;-85
2022/03/07 09:59:00;;;;;;;19.67;9.43;;;;;;;7.29;67.89;97377.59;5003533;28;20114;-84
2022/03/07 10:01:26;;;;;;;19.08;10.55;;;;;;;6.73;71.30;97396.41;5003530;28;20391;-86
2022/03/07 10:04:04;;;;;;;19.65;10.15;;;;;;;6.90;70.22;97377.81;5008264;28;20037;-85
2022/03/07 10:06:31;;;;;;;14.95;8.30;;;;;;;6.80;70.07;97371.22;5009977;28;20049;-85
2022/03/07 10:08:58;;;;;;;18.80;10.75;;;;;;;6.80;70.47;97378.38;5012530;28;20032;-85
2022/03/07 10:11:25;;;;;;;13.55;7.90;;;;;;;6.84;69.76;97388.75;5021540;28;20030;-85
2022/03/07 10:14:01;;;;;;;14.77;7.22;;;;;;;6.21;72.63;97397.19;5001142;28;20084;-85
2022/03/07 10:16:41;;;;;;;21.80;10.88;;;;;;;5.59;73.66;97371.72;5021277;28;20088;-85
2022/03/07 10:19:12;;;;;;;25.63;11.27;;;;;;;6.12;73.76;97381.69;5000437;28;20034;-84
2022/03/07 10:21:48;;;;;;;30.00;14.02;;;;;;;6.22;73.62;97375.88;5006264;28;20107;-84
2022/03/07 10:24:14;;;;;;;22.38;11.48;;;;;;;6.69;70.73;97394.84;5007646;28;20048;-85
2022/03/07 10:26:40;;;;;;;11.70;7.55;;;;;;;6.63;69.83;97365.91;5028568;28;20037;-85
2022/03/07 10:29:06;;;;;;;12.05;7.53;;;;;;;6.30;71.72;97373.72;5006073;28;20021;-86
2022/03/07 10:31:32;;;;;;;17.48;10.18;;;;;;;6.44;70.50;97363.28;5022468;28;20039;-88
2022/03/07 10:34:04;;;;;;;30.52;15.05;;;;;;;6.82;68.86;97374.69;5010109;28;20096;-85
2022/03/07 10:36:41;;;;;;;29.23;15.25;;;;;;;6.55;69.24;97373.41;5013162;28;20085;-84
2022/03/07 10:39:12;;;;;;;22.70;13.20;;;;;;;6.21;68.72;97352.06;5013603;28;20057;-85
2022/03/07 10:41:47;;;;;;;16.80;9.80;;;;;;;6.68;71.41;97337.28;5015627;28;20029;-85
2022/03/07 10:44:39;;;;;;;21.65;11.20;;;;;;;6.87;70.14;97377.97;5000069;28;20124;-86
2022/03/07 10:47:12;;;;;;;18.93;10.87;;;;;;;7.38;69.56;97368.28;5004736;28;20183;-85
2022/03/07 10:49:54;;;;;;;18.45;10.23;;;;;;;8.01;67.37;97364.84;5002719;28;20101;-85
2022/03/07 10:52:21;;;;;;;19.70;10.80;;;;;;;7.88;66.94;97363.78;4996491;28;20026;-87
2022/03/07 10:54:49;;;;;;;14.30;7.82;;;;;;;6.89;70.03;97360.13;5018509;28;20037;-85
2022/03/07 10:57:17;;;;;;;12.88;7.28;;;;;;;6.71;71.42;97361.06;5002164;28;20081;-86
2022/03/07 10:59:43;;;;;;;11.90;7.30;;;;;;;6.86;68.88;97365.59;4987259;28;20107;-85
2022/03/07 11:02:11;;;;;;;12.90;7.80;;;;;;;6.78;70.11;97361.63;4998522;28;20029;-85
2022/03/07 11:04:40;;;;;;;12.45;8.05;;;;;;;6.81;70.98;97361.47;4991329;28;20052;-87
2022/03/07 11:07:08;;;;;;;15.50;9.95;;;;;;;7.16;69.94;97363.22;4977740;28;20022;-87
2022/03/07 11:09:35;;;;;;;22.58;11.60;;;;;;;7.06;69.13;97365.47;4985041;28;20041;-87
2022/03/07 11:12:02;;;;;;;17.95;10.75;;;;;;;7.15;68.10;97365.94;5007552;28;20025;-86
2022/03/07 11:14:28;;;;;;;15.07;9.52;;;;;;;6.95;68.91;97353.69;4981607;28;20552;-85
2022/03/07 11:16:57;;;;;;;18.23;10.02;;;;;;;7.14;69.88;97346.47;4993532;28;20123;-86
2022/03/07 11:19:27;;;;;;;12.70;7.75;;;;;;;6.76;71.06;97352.88;5011850;28;20498;-87